Weather at Erie Municipal Airport

Public forecast

Using degrees Fahrenheit for public forecast. Weather courtesy of forecast.io.

Current aviation weather report (METAR) for Erie Municipal Airport

Retrieved 2020/11/27 21:35 UTC (22 minutes ago):

KEIK 272135Z AUTO 00000KT 10SM CLR 07/M06 A3018 RMK AO2 T00661059

Closest aviation forecast (TAF) to Erie Municipal Airport

Closest forecast is Rocky Mountain Metropolitan Airport, 6.9 nm (12.7 km) SSW. Retrieved 2020/11/27 18:27 UTC (4 hours ago):

TAF KBJC 271724Z 2718/2818 VRB06KT P6SM SKC FM280100 22008KT P6SM FEW220 FM281000 26008KT P6SM FEW220 FM281600 VRB06KT P6SM FEW220